Aviation Digital Data Service (ADDS)

Output produced by METARs form (0628 UTC 19 March 2019)
found at http://www.aviationweather.gov/metar/data/
 
METAR text: UKLI 190600Z 24001MPS 9999 OVC023 03/02 Q1021 R28/290365 NOSIG
Conditions at: UKLI (IVANO-FRANKIVSK , UA) observed 0600 UTC 19 March 2019
Temperature: 3.0°C (37°F)
Dewpoint: 2.0°C (36°F) [RH = 93%]
Pressure (altimeter): 30.15 inches Hg (1021.0 mb)
Winds: from the WSW (240 degrees) at 2 MPH (2 knots; 1.0 m/s)
Visibility: 6 or more miles (10+ km)
Ceiling: 2300 feet AGL
Clouds: overcast cloud deck at 2300 feet AGL
Weather: no significant weather observed at this time

METAR text: UKLI 190530Z 24002MPS 210V270 9999 SCT024CB BKN040 02/01 Q1021 R28/290365 NOSIG
Conditions at: UKLI (IVANO-FRANKIVSK , UA) observed 0530 UTC 19 March 2019
Temperature: 2.0°C (36°F)
Dewpoint: 1.0°C (34°F) [RH = 93%]
Pressure (altimeter): 30.15 inches Hg (1021.0 mb)
Winds: from the WSW (240 degrees) at 5 MPH (4 knots; 2.1 m/s)
Visibility: 6 or more miles (10+ km)
Ceiling: 4000 feet AGL
Clouds: scattered clouds at 2400 feet AGL
broken clouds at 4000 feet AGL
Weather: no significant weather observed at this time

METAR text: UKLI 190500Z 28003MPS 9999 SCT027CB BKN040 02/01 Q1021 R28/290365 NOSIG
Conditions at: UKLI (IVANO-FRANKIVSK , UA) observed 0500 UTC 19 March 2019
Temperature: 2.0°C (36°F)
Dewpoint: 1.0°C (34°F) [RH = 93%]
Pressure (altimeter): 30.15 inches Hg (1021.0 mb)
Winds: from the W (280 degrees) at 7 MPH (6 knots; 3.1 m/s)
Visibility: 6 or more miles (10+ km)
Ceiling: 4000 feet AGL
Clouds: scattered clouds at 2700 feet AGL
broken clouds at 4000 feet AGL
Weather: no significant weather observed at this time

METAR text: UKLI 190430Z 25002MPS 9999 SCT024CB BKN036 04/03 Q1021 R28/290365 NOSIG
Conditions at: UKLI (IVANO-FRANKIVSK , UA) observed 0430 UTC 19 March 2019
Temperature: 4.0°C (39°F)
Dewpoint: 3.0°C (37°F) [RH = 93%]
Pressure (altimeter): 30.15 inches Hg (1021.0 mb)
Winds: from the WSW (250 degrees) at 5 MPH (4 knots; 2.1 m/s)
Visibility: 6 or more miles (10+ km)
Ceiling: 3600 feet AGL
Clouds: scattered clouds at 2400 feet AGL
broken clouds at 3600 feet AGL
Weather: no significant weather observed at this time

METAR text: UKLI 190400Z 28002MPS 9999 -SHRA SCT024CB BKN036 04/03 Q1020 R28/290365 NOSIG
Conditions at: UKLI (IVANO-FRANKIVSK , UA) observed 0400 UTC 19 March 2019
Temperature: 4.0°C (39°F)
Dewpoint: 3.0°C (37°F) [RH = 93%]
Pressure (altimeter): 30.12 inches Hg (1020.0 mb)
Winds: from the W (280 degrees) at 5 MPH (4 knots; 2.1 m/s)
Visibility: 6 or more miles (10+ km)
Ceiling: 3600 feet AGL
Clouds: scattered clouds at 2400 feet AGL
broken clouds at 3600 feet AGL
Weather: -SHRA  (light rain showers)

METAR text: UKLI 190330Z 29002MPS 260V340 9999 -SHRA SCT023CB BKN036 03/02 Q1020 NOSIG
Conditions at: UKLI (IVANO-FRANKIVSK , UA) observed 0330 UTC 19 March 2019
Temperature: 3.0°C (37°F)
Dewpoint: 2.0°C (36°F) [RH = 93%]
Pressure (altimeter): 30.12 inches Hg (1020.0 mb)
Winds: from the WNW (290 degrees) at 5 MPH (4 knots; 2.1 m/s)
Visibility: 6 or more miles (10+ km)
Ceiling: 3600 feet AGL
Clouds: scattered clouds at 2300 feet AGL
broken clouds at 3600 feet AGL
Weather: -SHRA  (light rain showers)

METAR text: UKLI 190300Z 30003MPS 210V340 9999 -SHRA SCT023CB BKN036 03/02 Q1020 NOSIG
Conditions at: UKLI (IVANO-FRANKIVSK , UA) observed 0300 UTC 19 March 2019
Temperature: 3.0°C (37°F)
Dewpoint: 2.0°C (36°F) [RH = 93%]
Pressure (altimeter): 30.12 inches Hg (1020.0 mb)
Winds: from the WNW (300 degrees) at 7 MPH (6 knots; 3.1 m/s)
Visibility: 6 or more miles (10+ km)
Ceiling: 3600 feet AGL
Clouds: scattered clouds at 2300 feet AGL
broken clouds at 3600 feet AGL
Weather: -SHRA  (light rain showers)

METAR text: UKLI 182100Z 29001MPS 9999 BKN023 BKN100 06/03 Q1017 R28/090070 NOSIG
Conditions at: UKLI (IVANO-FRANKIVSK , UA) observed 2100 UTC 18 March 2019
Temperature: 6.0°C (43°F)
Dewpoint: 3.0°C (37°F) [RH = 81%]
Pressure (altimeter): 30.03 inches Hg (1017.0 mb)
Winds: from the WNW (290 degrees) at 2 MPH (2 knots; 1.0 m/s)
Visibility: 6 or more miles (10+ km)
Ceiling: 2300 feet AGL
Clouds: broken clouds at 2300 feet AGL
broken clouds at 10000 feet AGL
Weather: no significant weather observed at this time

METAR text: UKLI 182030Z 27002MPS 9999 BKN023 BKN100 06/03 Q1017 R28/090070 NOSIG
Conditions at: UKLI (IVANO-FRANKIVSK , UA) observed 2030 UTC 18 March 2019
Temperature: 6.0°C (43°F)
Dewpoint: 3.0°C (37°F) [RH = 81%]
Pressure (altimeter): 30.03 inches Hg (1017.0 mb)
Winds: from the W (270 degrees) at 5 MPH (4 knots; 2.1 m/s)
Visibility: 6 or more miles (10+ km)
Ceiling: 2300 feet AGL
Clouds: broken clouds at 2300 feet AGL
broken clouds at 10000 feet AGL
Weather: no significant weather observed at this time

METAR text: UKLI 182000Z VRB01MPS 9999 BKN023 BKN100 06/03 Q1016 R28/090070 NOSIG
Conditions at: UKLI (IVANO-FRANKIVSK , UA) observed 2000 UTC 18 March 2019
Temperature: 6.0°C (43°F)
Dewpoint: 3.0°C (37°F) [RH = 81%]
Pressure (altimeter): 30.00 inches Hg (1016.0 mb)
Winds: variable direction winds at 2 MPH (2 knots; 1.0 m/s)
Visibility: 6 or more miles (10+ km)
Ceiling: 2300 feet AGL
Clouds: broken clouds at 2300 feet AGL
broken clouds at 10000 feet AGL
Weather: no significant weather observed at this time

METAR text: UKLI 181930Z 29001MPS 9999 BKN023 BKN100 06/04 Q1016 R28/090070 NOSIG
Conditions at: UKLI (IVANO-FRANKIVSK , UA) observed 1930 UTC 18 March 2019
Temperature: 6.0°C (43°F)
Dewpoint: 4.0°C (39°F) [RH = 87%]
Pressure (altimeter): 30.00 inches Hg (1016.0 mb)
Winds: from the WNW (290 degrees) at 2 MPH (2 knots; 1.0 m/s)
Visibility: 6 or more miles (10+ km)
Ceiling: 2300 feet AGL
Clouds: broken clouds at 2300 feet AGL
broken clouds at 10000 feet AGL
Weather: no significant weather observed at this time

METAR text: UKLI 181900Z 28002MPS 9999 BKN024 BKN100 06/04 Q1016 R28/090070 NOSIG
Conditions at: UKLI (IVANO-FRANKIVSK , UA) observed 1900 UTC 18 March 2019
Temperature: 6.0°C (43°F)
Dewpoint: 4.0°C (39°F) [RH = 87%]
Pressure (altimeter): 30.00 inches Hg (1016.0 mb)
Winds: from the W (280 degrees) at 5 MPH (4 knots; 2.1 m/s)
Visibility: 6 or more miles (10+ km)
Ceiling: 2400 feet AGL
Clouds: broken clouds at 2400 feet AGL
broken clouds at 10000 feet AGL
Weather: no significant weather observed at this time

METAR text: UKLI 181830Z 29003MPS 9999 BKN024 BKN100 06/03 Q1016 R28/090070 NOSIG
Conditions at: UKLI (IVANO-FRANKIVSK , UA) observed 1830 UTC 18 March 2019
Temperature: 6.0°C (43°F)
Dewpoint: 3.0°C (37°F) [RH = 81%]
Pressure (altimeter): 30.00 inches Hg (1016.0 mb)
Winds: from the WNW (290 degrees) at 7 MPH (6 knots; 3.1 m/s)
Visibility: 6 or more miles (10+ km)
Ceiling: 2400 feet AGL
Clouds: broken clouds at 2400 feet AGL
broken clouds at 10000 feet AGL
Weather: no significant weather observed at this time

METAR text: UKLI 181800Z 29002MPS 250V320 9999 BKN024 BKN100 06/03 Q1016 R28/090070 NOSIG
Conditions at: UKLI (IVANO-FRANKIVSK , UA) observed 1800 UTC 18 March 2019
Temperature: 6.0°C (43°F)
Dewpoint: 3.0°C (37°F) [RH = 81%]
Pressure (altimeter): 30.00 inches Hg (1016.0 mb)
Winds: from the WNW (290 degrees) at 5 MPH (4 knots; 2.1 m/s)
Visibility: 6 or more miles (10+ km)
Ceiling: 2400 feet AGL
Clouds: broken clouds at 2400 feet AGL
broken clouds at 10000 feet AGL
Weather: no significant weather observed at this time

METAR text: UKLI 181730Z 28003MPS 9999 BKN025 BKN100 08/04 Q1015 R28/090070 NOSIG
Conditions at: UKLI (IVANO-FRANKIVSK , UA) observed 1730 UTC 18 March 2019
Temperature: 8.0°C (46°F)
Dewpoint: 4.0°C (39°F) [RH = 76%]
Pressure (altimeter): 29.97 inches Hg (1015.0 mb)
Winds: from the W (280 degrees) at 7 MPH (6 knots; 3.1 m/s)
Visibility: 6 or more miles (10+ km)
Ceiling: 2500 feet AGL
Clouds: broken clouds at 2500 feet AGL
broken clouds at 10000 feet AGL
Weather: no significant weather observed at this time

METAR text: UKLI 181700Z 30003MPS 260V010 9999 BKN020 BKN100 08/04 Q1015 R28/090070 NOSIG
Conditions at: UKLI (IVANO-FRANKIVSK , UA) observed 1700 UTC 18 March 2019
Temperature: 8.0°C (46°F)
Dewpoint: 4.0°C (39°F) [RH = 76%]
Pressure (altimeter): 29.97 inches Hg (1015.0 mb)
Winds: from the WNW (300 degrees) at 7 MPH (6 knots; 3.1 m/s)
Visibility: 6 or more miles (10+ km)
Ceiling: 2000 feet AGL
Clouds: broken clouds at 2000 feet AGL
broken clouds at 10000 feet AGL
Weather: no significant weather observed at this time

METAR text: UKLI 181630Z 31004MPS 240V350 9999 SCT030 BKN100 08/03 Q1015 R28/090070 NOSIG
Conditions at: UKLI (IVANO-FRANKIVSK , UA) observed 1630 UTC 18 March 2019
Temperature: 8.0°C (46°F)
Dewpoint: 3.0°C (37°F) [RH = 71%]
Pressure (altimeter): 29.97 inches Hg (1015.0 mb)
Winds: from the NW (310 degrees) at 9 MPH (8 knots; 4.1 m/s)
Visibility: 6 or more miles (10+ km)
Ceiling: 10000 feet AGL
Clouds: scattered clouds at 3000 feet AGL
broken clouds at 10000 feet AGL
Weather: no significant weather observed at this time

METAR text: UKLI 181600Z 30004MPS 250V340 CAVOK 08/03 Q1014 R28/090070 NOSIG
Conditions at: UKLI (IVANO-FRANKIVSK , UA) observed 1600 UTC 18 March 2019
Temperature: 8.0°C (46°F)
Dewpoint: 3.0°C (37°F) [RH = 71%]
Pressure (altimeter): 29.94 inches Hg (1014.0 mb)
Winds: from the WNW (300 degrees) at 9 MPH (8 knots; 4.1 m/s)
Visibility: 6 or more miles (10+ km)
Ceiling: ceiling and visibility are OK
Clouds: unknown
Weather: no significant weather observed at this time

METAR text: UKLI 181530Z 31003MPS 270V350 CAVOK 09/03 Q1014 R28/090070 NOSIG
Conditions at: UKLI (IVANO-FRANKIVSK , UA) observed 1530 UTC 18 March 2019
Temperature: 9.0°C (48°F)
Dewpoint: 3.0°C (37°F) [RH = 66%]
Pressure (altimeter): 29.94 inches Hg (1014.0 mb)
Winds: from the NW (310 degrees) at 7 MPH (6 knots; 3.1 m/s)
Visibility: 6 or more miles (10+ km)
Ceiling: ceiling and visibility are OK
Clouds: unknown
Weather: no significant weather observed at this time

METAR text: UKLI 181500Z VRB04MPS CAVOK 09/03 Q1013 R28/090070 NOSIG
Conditions at: UKLI (IVANO-FRANKIVSK , UA) observed 1500 UTC 18 March 2019
Temperature: 9.0°C (48°F)
Dewpoint: 3.0°C (37°F) [RH = 66%]
Pressure (altimeter): 29.91 inches Hg (1013.0 mb)
Winds: variable direction winds at 9 MPH (8 knots; 4.1 m/s)
Visibility: 6 or more miles (10+ km)
Ceiling: ceiling and visibility are OK
Clouds: unknown
Weather: no significant weather observed at this time

METAR text: UKLI 181430Z 30004MPS 260V350 CAVOK 10/02 Q1013 R28/090070 NOSIG
Conditions at: UKLI (IVANO-FRANKIVSK , UA) observed 1430 UTC 18 March 2019
Temperature: 10.0°C (50°F)
Dewpoint: 2.0°C (36°F) [RH = 57%]
Pressure (altimeter): 29.91 inches Hg (1013.0 mb)
Winds: from the WNW (300 degrees) at 9 MPH (8 knots; 4.1 m/s)
Visibility: 6 or more miles (10+ km)
Ceiling: ceiling and visibility are OK
Clouds: unknown
Weather: no significant weather observed at this time

METAR text: UKLI 181400Z 30005MPS 250V340 CAVOK 10/02 Q1013 R28/090070 NOSIG
Conditions at: UKLI (IVANO-FRANKIVSK , UA) observed 1400 UTC 18 March 2019
Temperature: 10.0°C (50°F)
Dewpoint: 2.0°C (36°F) [RH = 57%]
Pressure (altimeter): 29.91 inches Hg (1013.0 mb)
Winds: from the WNW (300 degrees) at 12 MPH (10 knots; 5.1 m/s)
Visibility: 6 or more miles (10+ km)
Ceiling: ceiling and visibility are OK
Clouds: unknown
Weather: no significant weather observed at this time

METAR text: UKLI 181330Z 31006MPS 250V010 CAVOK 12/03 Q1013 R28/090070 NOSIG
Conditions at: UKLI (IVANO-FRANKIVSK , UA) observed 1330 UTC 18 March 2019
Temperature: 12.0°C (54°F)
Dewpoint: 3.0°C (37°F) [RH = 54%]
Pressure (altimeter): 29.91 inches Hg (1013.0 mb)
Winds: from the NW (310 degrees) at 14 MPH (12 knots; 6.2 m/s)
Visibility: 6 or more miles (10+ km)
Ceiling: ceiling and visibility are OK
Clouds: unknown
Weather: no significant weather observed at this time

METAR text: UKLI 181300Z 33006MPS 270V350 CAVOK 12/03 Q1012 R28/090070 NOSIG
Conditions at: UKLI (IVANO-FRANKIVSK , UA) observed 1300 UTC 18 March 2019
Temperature: 12.0°C (54°F)
Dewpoint: 3.0°C (37°F) [RH = 54%]
Pressure (altimeter): 29.88 inches Hg (1012.0 mb)
Winds: from the NNW (330 degrees) at 14 MPH (12 knots; 6.2 m/s)
Visibility: 6 or more miles (10+ km)
Ceiling: ceiling and visibility are OK
Clouds: unknown
Weather: no significant weather observed at this time

METAR text: UKLI 181230Z 35005MPS 310V010 CAVOK 13/03 Q1012 R28/090070 NOSIG
Conditions at: UKLI (IVANO-FRANKIVSK , UA) observed 1230 UTC 18 March 2019
Temperature: 13.0°C (55°F)
Dewpoint: 3.0°C (37°F) [RH = 51%]
Pressure (altimeter): 29.88 inches Hg (1012.0 mb)
Winds: from the N (350 degrees) at 12 MPH (10 knots; 5.1 m/s)
Visibility: 6 or more miles (10+ km)
Ceiling: ceiling and visibility are OK
Clouds: unknown
Weather: no significant weather observed at this time

METAR text: UKLI 181200Z 34006MPS 290V010 CAVOK 13/03 Q1012 R28/090070 NOSIG
Conditions at: UKLI (IVANO-FRANKIVSK , UA) observed 1200 UTC 18 March 2019
Temperature: 13.0°C (55°F)
Dewpoint: 3.0°C (37°F) [RH = 51%]
Pressure (altimeter): 29.88 inches Hg (1012.0 mb)
Winds: from the NNW (340 degrees) at 14 MPH (12 knots; 6.2 m/s)
Visibility: 6 or more miles (10+ km)
Ceiling: ceiling and visibility are OK
Clouds: unknown
Weather: no significant weather observed at this time

METAR text: UKLI 181130Z 34005MPS 310V020 CAVOK 13/02 Q1012 R28/090070 NOSIG
Conditions at: UKLI (IVANO-FRANKIVSK , UA) observed 1130 UTC 18 March 2019
Temperature: 13.0°C (55°F)
Dewpoint: 2.0°C (36°F) [RH = 47%]
Pressure (altimeter): 29.88 inches Hg (1012.0 mb)
Winds: from the NNW (340 degrees) at 12 MPH (10 knots; 5.1 m/s)
Visibility: 6 or more miles (10+ km)
Ceiling: ceiling and visibility are OK
Clouds: unknown
Weather: no significant weather observed at this time

METAR text: UKLI 181100Z 32006MPS 280V350 CAVOK 13/02 Q1012 R28/090070 NOSIG
Conditions at: UKLI (IVANO-FRANKIVSK , UA) observed 1100 UTC 18 March 2019
Temperature: 13.0°C (55°F)
Dewpoint: 2.0°C (36°F) [RH = 47%]
Pressure (altimeter): 29.88 inches Hg (1012.0 mb)
Winds: from the NW (320 degrees) at 14 MPH (12 knots; 6.2 m/s)
Visibility: 6 or more miles (10+ km)
Ceiling: ceiling and visibility are OK
Clouds: unknown
Weather: no significant weather observed at this time

METAR text: UKLI 181030Z 31006MPS 260V350 CAVOK 12/01 Q1011 R28/090070 NOSIG
Conditions at: UKLI (IVANO-FRANKIVSK , UA) observed 1030 UTC 18 March 2019
Temperature: 12.0°C (54°F)
Dewpoint: 1.0°C (34°F) [RH = 47%]
Pressure (altimeter): 29.85 inches Hg (1011.0 mb)
Winds: from the NW (310 degrees) at 14 MPH (12 knots; 6.2 m/s)
Visibility: 6 or more miles (10+ km)
Ceiling: ceiling and visibility are OK
Clouds: unknown
Weather: no significant weather observed at this time

METAR text: UKLI 181000Z 33007MPS 270V350 CAVOK 12/01 Q1011 R28/090070 NOSIG
Conditions at: UKLI (IVANO-FRANKIVSK , UA) observed 1000 UTC 18 March 2019
Temperature: 12.0°C (54°F)
Dewpoint: 1.0°C (34°F) [RH = 47%]
Pressure (altimeter): 29.85 inches Hg (1011.0 mb)
Winds: from the NNW (330 degrees) at 16 MPH (14 knots; 7.2 m/s)
Visibility: 6 or more miles (10+ km)
Ceiling: ceiling and visibility are OK
Clouds: unknown
Weather: no significant weather observed at this time

METAR text: UKLI 180930Z 31007MPS 250V350 CAVOK 13/03 Q1010 R28/090070 NOSIG
Conditions at: UKLI (IVANO-FRANKIVSK , UA) observed 0930 UTC 18 March 2019
Temperature: 13.0°C (55°F)
Dewpoint: 3.0°C (37°F) [RH = 51%]
Pressure (altimeter): 29.82 inches Hg (1010.0 mb)
Winds: from the NW (310 degrees) at 16 MPH (14 knots; 7.2 m/s)
Visibility: 6 or more miles (10+ km)
Ceiling: ceiling and visibility are OK
Clouds: unknown
Weather: no significant weather observed at this time

METAR text: UKLI 180900Z 33007MPS 300V010 CAVOK 13/03 Q1010 R28/090070 NOSIG
Conditions at: UKLI (IVANO-FRANKIVSK , UA) observed 0900 UTC 18 March 2019
Temperature: 13.0°C (55°F)
Dewpoint: 3.0°C (37°F) [RH = 51%]
Pressure (altimeter): 29.82 inches Hg (1010.0 mb)
Winds: from the NNW (330 degrees) at 16 MPH (14 knots; 7.2 m/s)
Visibility: 6 or more miles (10+ km)
Ceiling: ceiling and visibility are OK
Clouds: unknown
Weather: no significant weather observed at this time

METAR text: UKLI 180830Z 36006MPS 330V050 CAVOK 13/03 Q1009 R28/090070 NOSIG
Conditions at: UKLI (IVANO-FRANKIVSK , UA) observed 0830 UTC 18 March 2019
Temperature: 13.0°C (55°F)
Dewpoint: 3.0°C (37°F) [RH = 51%]
Pressure (altimeter): 29.79 inches Hg (1009.0 mb)
Winds: from the N (360 degrees) at 14 MPH (12 knots; 6.2 m/s)
Visibility: 6 or more miles (10+ km)
Ceiling: ceiling and visibility are OK
Clouds: unknown
Weather: no significant weather observed at this time

METAR text: UKLI 180800Z VRB01MPS CAVOK 13/03 Q1009 R28/090070 NOSIG
Conditions at: UKLI (IVANO-FRANKIVSK , UA) observed 0800 UTC 18 March 2019
Temperature: 13.0°C (55°F)
Dewpoint: 3.0°C (37°F) [RH = 51%]
Pressure (altimeter): 29.79 inches Hg (1009.0 mb)
Winds: variable direction winds at 2 MPH (2 knots; 1.0 m/s)
Visibility: 6 or more miles (10+ km)
Ceiling: ceiling and visibility are OK
Clouds: unknown
Weather: no significant weather observed at this time

METAR text: UKLI 180730Z VRB01MPS CAVOK 08/01 Q1009 R28/090070 NOSIG
Conditions at: UKLI (IVANO-FRANKIVSK , UA) observed 0730 UTC 18 March 2019
Temperature: 8.0°C (46°F)
Dewpoint: 1.0°C (34°F) [RH = 61%]
Pressure (altimeter): 29.79 inches Hg (1009.0 mb)
Winds: variable direction winds at 2 MPH (2 knots; 1.0 m/s)
Visibility: 6 or more miles (10+ km)
Ceiling: ceiling and visibility are OK
Clouds: unknown
Weather: no significant weather observed at this time

METAR text: UKLI 180700Z VRB01MPS CAVOK 08/01 Q1009 R28/090070 NOSIG
Conditions at: UKLI (IVANO-FRANKIVSK , UA) observed 0700 UTC 18 March 2019
Temperature: 8.0°C (46°F)
Dewpoint: 1.0°C (34°F) [RH = 61%]
Pressure (altimeter): 29.79 inches Hg (1009.0 mb)
Winds: variable direction winds at 2 MPH (2 knots; 1.0 m/s)
Visibility: 6 or more miles (10+ km)
Ceiling: ceiling and visibility are OK
Clouds: unknown
Weather: no significant weather observed at this time

METAR text: UKLI 180630Z 31002MPS 240V340 CAVOK 06/01 Q1008 R28/090070 NOSIG
Conditions at: UKLI (IVANO-FRANKIVSK , UA) observed 0630 UTC 18 March 2019
Temperature: 6.0°C (43°F)
Dewpoint: 1.0°C (34°F) [RH = 70%]
Pressure (altimeter): 29.76 inches Hg (1008.0 mb)
Winds: from the NW (310 degrees) at 5 MPH (4 knots; 2.1 m/s)
Visibility: 6 or more miles (10+ km)
Ceiling: ceiling and visibility are OK
Clouds: unknown
Weather: no significant weather observed at this time

METAR text: UKLI 180600Z VRB01MPS CAVOK 06/01 Q1008 R28/090070 NOSIG
Conditions at: UKLI (IVANO-FRANKIVSK , UA) observed 0600 UTC 18 March 2019
Temperature: 6.0°C (43°F)
Dewpoint: 1.0°C (34°F) [RH = 70%]
Pressure (altimeter): 29.76 inches Hg (1008.0 mb)
Winds: variable direction winds at 2 MPH (2 knots; 1.0 m/s)
Visibility: 6 or more miles (10+ km)
Ceiling: ceiling and visibility are OK
Clouds: unknown
Weather: no significant weather observed at this time

METAR text: UKLI 180530Z VRB01MPS CAVOK 01/M01 Q1008 R28/090070 NOSIG
Conditions at: UKLI (IVANO-FRANKIVSK , UA) observed 0530 UTC 18 March 2019
Temperature: 1.0°C (34°F)
Dewpoint: -1.0°C (30°F) [RH = 86%]
Pressure (altimeter): 29.76 inches Hg (1008.0 mb)
Winds: variable direction winds at 2 MPH (2 knots; 1.0 m/s)
Visibility: 6 or more miles (10+ km)
Ceiling: ceiling and visibility are OK
Clouds: unknown
Weather: no significant weather observed at this time

METAR text: UKLI 180500Z VRB01MPS CAVOK 01/M01 Q1007 R28/090070 NOSIG
Conditions at: UKLI (IVANO-FRANKIVSK , UA) observed 0500 UTC 18 March 2019
Temperature: 1.0°C (34°F)
Dewpoint: -1.0°C (30°F) [RH = 86%]
Pressure (altimeter): 29.73 inches Hg (1007.0 mb)
Winds: variable direction winds at 2 MPH (2 knots; 1.0 m/s)
Visibility: 6 or more miles (10+ km)
Ceiling: ceiling and visibility are OK
Clouds: unknown
Weather: no significant weather observed at this time

METAR text: UKLI 180430Z 24001MPS CAVOK 00/M01 Q1007 R28/090070 NOSIG
Conditions at: UKLI (IVANO-FRANKIVSK , UA) observed 0430 UTC 18 March 2019
Temperature: 0.0°C (32°F)
Dewpoint: -1.0°C (30°F) [RH = 93%]
Pressure (altimeter): 29.73 inches Hg (1007.0 mb)
Winds: from the WSW (240 degrees) at 2 MPH (2 knots; 1.0 m/s)
Visibility: 6 or more miles (10+ km)
Ceiling: ceiling and visibility are OK
Clouds: unknown
Weather: no significant weather observed at this time

METAR text: UKLI 180400Z 09002MPS 070V210 CAVOK M00/M01 Q1007 R28/090070 NOSIG
Conditions at: UKLI (IVANO-FRANKIVSK , UA) observed 0400 UTC 18 March 2019
Temperature: 0.0°C (32°F)
Dewpoint: -1.0°C (30°F) [RH = 93%]
Pressure (altimeter): 29.73 inches Hg (1007.0 mb)
Winds: from the E (90 degrees) at 5 MPH (4 knots; 2.1 m/s)
Visibility: 6 or more miles (10+ km)
Ceiling: ceiling and visibility are OK
Clouds: unknown
Weather: no significant weather observed at this time

METAR text: UKLI 180330Z VRB01MPS CAVOK M01/M01 Q1007 R28/090070 NOSIG
Conditions at: UKLI (IVANO-FRANKIVSK , UA) observed 0330 UTC 18 March 2019
Temperature: -1.0°C (30°F)
Dewpoint: -1.0°C (30°F) [RH = 100%]
Pressure (altimeter): 29.73 inches Hg (1007.0 mb)
Winds: variable direction winds at 2 MPH (2 knots; 1.0 m/s)
Visibility: 6 or more miles (10+ km)
Ceiling: ceiling and visibility are OK
Clouds: unknown
Weather: no significant weather observed at this time

METAR text: UKLI 180300Z 24003MPS 160V270 CAVOK M01/M01 Q1008 R28/090070 NOSIG
Conditions at: UKLI (IVANO-FRANKIVSK , UA) observed 0300 UTC 18 March 2019
Temperature: -1.0°C (30°F)
Dewpoint: -1.0°C (30°F) [RH = 100%]
Pressure (altimeter): 29.76 inches Hg (1008.0 mb)
Winds: from the WSW (240 degrees) at 7 MPH (6 knots; 3.1 m/s)
Visibility: 6 or more miles (10+ km)
Ceiling: ceiling and visibility are OK
Clouds: unknown
Weather: no significant weather observed at this time

METAR text: UKLI 172100Z 00000MPS CAVOK 02/01 Q1009 R28/090070 NOSIG
Conditions at: UKLI (IVANO-FRANKIVSK , UA) observed 2100 UTC 17 March 2019
Temperature: 2.0°C (36°F)
Dewpoint: 1.0°C (34°F) [RH = 93%]
Pressure (altimeter): 29.79 inches Hg (1009.0 mb)
Winds: calm
Visibility: 6 or more miles (10+ km)
Ceiling: ceiling and visibility are OK
Clouds: unknown
Weather: no significant weather observed at this time

METAR text: UKLI 172030Z 00000MPS CAVOK 04/01 Q1009 R28/090070 NOSIG
Conditions at: UKLI (IVANO-FRANKIVSK , UA) observed 2030 UTC 17 March 2019
Temperature: 4.0°C (39°F)
Dewpoint: 1.0°C (34°F) [RH = 81%]
Pressure (altimeter): 29.79 inches Hg (1009.0 mb)
Winds: calm
Visibility: 6 or more miles (10+ km)
Ceiling: ceiling and visibility are OK
Clouds: unknown
Weather: no significant weather observed at this time

METAR text: UKLI 172000Z 00000MPS CAVOK 04/01 Q1008 R28/090070 NOSIG
Conditions at: UKLI (IVANO-FRANKIVSK , UA) observed 2000 UTC 17 March 2019
Temperature: 4.0°C (39°F)
Dewpoint: 1.0°C (34°F) [RH = 81%]
Pressure (altimeter): 29.76 inches Hg (1008.0 mb)
Winds: calm
Visibility: 6 or more miles (10+ km)
Ceiling: ceiling and visibility are OK
Clouds: unknown
Weather: no significant weather observed at this time

METAR text: UKLI 171930Z 00000MPS CAVOK 05/00 Q1009 R28/090070 NOSIG
Conditions at: UKLI (IVANO-FRANKIVSK , UA) observed 1930 UTC 17 March 2019
Temperature: 5.0°C (41°F)
Dewpoint: 0.0°C (32°F) [RH = 70%]
Pressure (altimeter): 29.79 inches Hg (1009.0 mb)
Winds: calm
Visibility: 6 or more miles (10+ km)
Ceiling: ceiling and visibility are OK
Clouds: unknown
Weather: no significant weather observed at this time

METAR text: UKLI 171900Z 14002MPS CAVOK 06/01 Q1008 R28/090070 NOSIG
Conditions at: UKLI (IVANO-FRANKIVSK , UA) observed 1900 UTC 17 March 2019
Temperature: 6.0°C (43°F)
Dewpoint: 1.0°C (34°F) [RH = 70%]
Pressure (altimeter): 29.76 inches Hg (1008.0 mb)
Winds: from the SE (140 degrees) at 5 MPH (4 knots; 2.1 m/s)
Visibility: 6 or more miles (10+ km)
Ceiling: ceiling and visibility are OK
Clouds: unknown
Weather: no significant weather observed at this time

METAR text: UKLI 171830Z 15002MPS CAVOK 07/M00 Q1009 R28/090070 NOSIG
Conditions at: UKLI (IVANO-FRANKIVSK , UA) observed 1830 UTC 17 March 2019
Temperature: 7.0°C (45°F)
Dewpoint: 0.0°C (32°F) [RH = 61%]
Pressure (altimeter): 29.79 inches Hg (1009.0 mb)
Winds: from the SSE (150 degrees) at 5 MPH (4 knots; 2.1 m/s)
Visibility: 6 or more miles (10+ km)
Ceiling: ceiling and visibility are OK
Clouds: unknown
Weather: no significant weather observed at this time

Forecast for: UKLI (IVANO-FRANKIVSK , UA)
Text: TAF UKLI 190501Z 1906/1915 28003MPS 9999 BKN030 TX09/1913Z TN04/1906Z
Forecast period: 0600 to 1500 UTC 19 March 2019
Forecast type: FROM: standard forecast or significant change
Winds: from the W (280 degrees) at 7 MPH (6 knots; 3.1 m/s)
Visibility: 6 or more miles 10+ km)
Ceiling: 3000 feet AGL
Clouds: broken clouds at 3000 feet AGL
Weather: no significant weather forecast for this period
Text: TEMPO 1906/1912 2100 -SHRA BKN007 BKN010CB
Forecast period: 0600 to 1200 UTC 19 March 2019
Forecast type: TEMPORARY: The following changes expected for less than half the time period
Visibility: 1.30 miles (2.09 km)
Ceiling: 700 feet AGL
Clouds: broken clouds at 700 feet AGL
broken clouds at 1000 feet AGL
Weather: -SHRA  (light rain showers)